Time;durP1;ratioP1;P1;durP2;ratioP2;P2;SDS_P1;SDS_P2;PMS_P1;PMS_P2;Temp;Humidity;BMP_temperature;BMP_pressure;BME280_temperature;BME280_humidity;BME280_pressure;Samples;Min_cycle;Max_cycle;Signal;HPM_P1;HPM_P2
2023/01/07 00:00:29;;;;;;;46.75;23.10;;;;;;;;;;6247012;28;20060;-71
2023/01/07 00:03:31;;;;;;;44.75;22.15;;;;;;;;;;6249662;28;20053;-73
2023/01/07 00:06:34;;;;;;;49.80;23.63;;;;;;;;;;6248354;28;20089;-73
2023/01/07 00:09:37;;;;;;;46.00;22.23;;;;;;;;;;6247883;28;20388;-73
2023/01/07 00:12:39;;;;;;;43.00;22.35;;;;;;;;;;6249106;28;20061;-75
2023/01/07 00:15:41;;;;;;;41.80;21.55;;;;;;;;;;6247734;28;20049;-74
2023/01/07 00:18:43;;;;;;;49.00;24.02;;;;;;;;;;6249416;28;20283;-74
2023/01/07 00:21:44;;;;;;;41.58;21.90;;;;;;;;;;6250787;28;20283;-74
2023/01/07 00:24:47;;;;;;;44.47;23.30;;;;;;;;;;6248373;28;20288;-71
2023/01/07 00:27:49;;;;;;;44.10;23.40;;;;;;;;;;6246880;28;20279;-74
2023/01/07 00:30:51;;;;;;;46.88;23.23;;;;;;;;;;6250058;28;20049;-74
2023/01/07 00:34:05;;;;;;;40.72;22.27;;;;;;;;;;6249358;28;20057;-74
2023/01/07 00:40:27;;;;;;;42.28;21.98;;;;;;;;;;6248977;28;20045;-75
2023/01/07 00:43:29;;;;;;;41.00;22.17;;;;;;;;;;6248507;28;20215;-75
2023/01/07 00:46:31;;;;;;;41.55;22.95;;;;;;;;;;6249190;28;20241;-73
2023/01/07 00:49:33;;;;;;;43.33;23.88;;;;;;;;;;6246197;28;20454;-76
2023/01/07 00:52:34;;;;;;;43.83;22.20;;;;;;;;;;6246124;28;20049;-76
2023/01/07 00:55:37;;;;;;;48.17;24.10;;;;;;;;;;6247039;28;20065;-73
2023/01/07 00:58:39;;;;;;;49.17;25.00;;;;;;;;;;6246071;28;20355;-76
2023/01/07 01:01:40;;;;;;;42.15;23.75;;;;;;;;;;6246623;28;20251;-74
2023/01/07 01:04:42;;;;;;;48.33;23.83;;;;;;;;;;6247471;28;20049;-75
2023/01/07 01:07:44;;;;;;;47.13;23.73;;;;;;;;;;6246940;28;20345;-73
2023/01/07 01:10:47;;;;;;;52.60;25.23;;;;;;;;;;6245362;28;20341;-75
2023/01/07 01:13:49;;;;;;;45.72;23.88;;;;;;;;;;6247154;28;20045;-75
2023/01/07 01:16:51;;;;;;;42.95;23.23;;;;;;;;;;6245501;28;20053;-74
2023/01/07 01:19:53;;;;;;;42.72;23.10;;;;;;;;;;6245257;28;20318;-75
2023/01/07 01:22:54;;;;;;;41.33;23.58;;;;;;;;;;6247774;28;20046;-73
2023/01/07 01:26:04;;;;;;;42.78;22.77;;;;;;;;;;6248230;28;20065;-75
2023/01/07 01:29:05;;;;;;;40.15;22.00;;;;;;;;;;6247277;28;20353;-75
2023/01/07 01:32:07;;;;;;;40.42;22.05;;;;;;;;;;6245841;28;20334;-75
2023/01/07 01:35:09;;;;;;;37.40;20.95;;;;;;;;;;6246907;28;20103;-75
2023/01/07 01:38:11;;;;;;;41.97;22.00;;;;;;;;;;6242518;28;20057;-75
2023/01/07 01:41:16;;;;;;;37.15;20.92;;;;;;;;;;6248701;28;20053;-75
2023/01/07 01:44:40;;;;;;;41.20;20.92;;;;;;;;;;6245325;28;20111;-74
2023/01/07 01:47:44;;;;;;;39.33;21.60;;;;;;;;;;6245856;28;20690;-75
2023/01/07 01:50:47;;;;;;;41.22;19.95;;;;;;;;;;6245720;28;20253;-75
2023/01/07 01:53:49;;;;;;;38.10;20.40;;;;;;;;;;6248532;28;20277;-72
2023/01/07 01:56:53;;;;;;;38.08;21.15;;;;;;;;;;6248916;28;20053;-73
2023/01/07 01:59:56;;;;;;;34.58;19.67;;;;;;;;;;6245085;28;20104;-72
2023/01/07 02:02:58;;;;;;;37.28;19.85;;;;;;;;;;6242761;28;20092;-75
2023/01/07 02:06:00;;;;;;;35.40;20.48;;;;;;;;;;6243839;28;20092;-75
2023/01/07 02:09:03;;;;;;;35.53;20.08;;;;;;;;;;6248811;28;20060;-75
2023/01/07 02:12:14;;;;;;;36.53;19.85;;;;;;;;;;6242958;28;20119;-75
2023/01/07 02:15:25;;;;;;;37.90;19.10;;;;;;;;;;6248331;28;20065;-74
2023/01/07 02:18:42;;;;;;;37.80;20.55;;;;;;;;;;6244296;28;20057;-75
2023/01/07 02:21:48;;;;;;;38.45;20.30;;;;;;;;;;6248356;28;20044;-73
2023/01/07 02:25:08;;;;;;;37.45;20.63;;;;;;;;;;6248672;28;20055;-75
2023/01/07 02:28:29;;;;;;;36.97;19.23;;;;;;;;;;6243184;28;20073;-74
2023/01/07 02:31:51;;;;;;;38.42;20.27;;;;;;;;;;6246992;28;20056;-76
2023/01/07 02:34:59;;;;;;;33.58;18.45;;;;;;;;;;6246725;28;20042;-76
2023/01/07 02:38:06;;;;;;;32.38;19.02;;;;;;;;;;6247009;28;20272;-74
2023/01/07 02:41:14;;;;;;;32.65;19.17;;;;;;;;;;6246302;28;20104;-75
2023/01/07 02:44:25;;;;;;;34.55;19.30;;;;;;;;;;6244416;28;20050;-74
2023/01/07 02:47:31;;;;;;;33.03;18.65;;;;;;;;;;6246568;28;20340;-75
2023/01/07 02:50:33;;;;;;;35.60;18.58;;;;;;;;;;6243824;28;20352;-81
2023/01/07 02:53:35;;;;;;;29.80;17.75;;;;;;;;;;6246868;28;20092;-75
2023/01/07 02:56:47;;;;;;;35.03;19.33;;;;;;;;;;6246141;28;20063;-77
2023/01/07 03:00:01;;;;;;;34.22;18.27;;;;;;;;;;6246009;28;20088;-77
2023/01/07 03:03:20;;;;;;;33.17;17.63;;;;;;;;;;6246291;28;20060;-77
2023/01/07 03:06:33;;;;;;;31.05;18.20;;;;;;;;;;6246335;28;20061;-73
2023/01/07 03:09:41;;;;;;;30.20;16.50;;;;;;;;;;6243380;28;20345;-75
2023/01/07 03:12:45;;;;;;;27.77;16.83;;;;;;;;;;6245478;28;20054;-71
2023/01/07 03:15:51;;;;;;;32.22;17.08;;;;;;;;;;6245165;28;20093;-77
2023/01/07 03:18:59;;;;;;;32.20;17.52;;;;;;;;;;6248765;28;20349;-77
2023/01/07 03:22:03;;;;;;;35.55;18.05;;;;;;;;;;6252259;28;20052;-77
2023/01/07 03:25:06;;;;;;;37.03;19.27;;;;;;;;;;6247570;28;20064;-77
2023/01/07 03:28:09;;;;;;;37.15;18.83;;;;;;;;;;6251250;28;20060;-75
2023/01/07 03:31:13;;;;;;;36.13;18.15;;;;;;;;;;6250283;28;20120;-77
2023/01/07 03:34:19;;;;;;;33.70;17.23;;;;;;;;;;6247753;28;20057;-75
2023/01/07 03:37:22;;;;;;;34.30;17.58;;;;;;;;;;6251143;28;20107;-75
2023/01/07 03:40:24;;;;;;;31.48;15.95;;;;;;;;;;6249274;28;20570;-75
2023/01/07 03:43:25;;;;;;;28.48;16.10;;;;;;;;;;6248189;28;20080;-75
2023/01/07 03:46:27;;;;;;;33.42;15.98;;;;;;;;;;6249252;28;20294;-77
2023/01/07 03:49:30;;;;;;;25.77;14.50;;;;;;;;;;6251187;28;20087;-77
2023/01/07 03:52:32;;;;;;;25.27;13.60;;;;;;;;;;6249134;28;20061;-77
2023/01/07 03:55:34;;;;;;;23.95;12.30;;;;;;;;;;6252168;28;20049;-77
2023/01/07 03:58:36;;;;;;;22.83;12.05;;;;;;;;;;6248909;28;20065;-75
2023/01/07 04:01:37;;;;;;;16.98;10.52;;;;;;;;;;6251626;28;20062;-77
2023/01/07 04:04:40;;;;;;;18.92;10.93;;;;;;;;;;6249906;28;20050;-77
2023/01/07 04:07:42;;;;;;;16.67;9.85;;;;;;;;;;6249196;28;20054;-75
2023/01/07 04:10:44;;;;;;;14.05;8.93;;;;;;;;;;6251019;28;20103;-74
2023/01/07 04:13:45;;;;;;;16.98;9.45;;;;;;;;;;6247201;28;20053;-75
2023/01/07 04:16:49;;;;;;;15.85;9.70;;;;;;;;;;6248126;28;20214;-75
2023/01/07 04:19:53;;;;;;;15.88;9.05;;;;;;;;;;6247464;28;20096;-74
2023/01/07 04:22:54;;;;;;;15.18;9.45;;;;;;;;;;6248394;28;20049;-75
2023/01/07 04:25:56;;;;;;;14.23;8.82;;;;;;;;;;6249823;28;20108;-76
2023/01/07 04:28:58;;;;;;;16.88;9.93;;;;;;;;;;6246797;28;20049;-75
2023/01/07 04:31:59;;;;;;;17.15;8.90;;;;;;;;;;6248429;28;20057;-75
2023/01/07 04:35:03;;;;;;;13.15;8.15;;;;;;;;;;6246308;28;20180;-75
2023/01/07 04:38:04;;;;;;;16.88;9.20;;;;;;;;;;6246784;28;20049;-75
2023/01/07 04:41:06;;;;;;;15.07;8.45;;;;;;;;;;6245731;28;20233;-72
2023/01/07 04:44:08;;;;;;;15.18;9.13;;;;;;;;;;6248692;28;20053;-75
2023/01/07 04:47:09;;;;;;;18.20;9.82;;;;;;;;;;6251029;28;20068;-75
2023/01/07 04:50:12;;;;;;;14.57;8.98;;;;;;;;;;6247098;28;20096;-75
2023/01/07 04:53:15;;;;;;;14.15;8.23;;;;;;;;;;6249267;28;20284;-75
2023/01/07 04:56:16;;;;;;;15.63;8.90;;;;;;;;;;6249380;28;20053;-75
2023/01/07 04:59:18;;;;;;;17.42;9.38;;;;;;;;;;6249297;28;20041;-74
2023/01/07 05:02:20;;;;;;;16.02;9.52;;;;;;;;;;6248460;28;20046;-75
2023/01/07 05:05:23;;;;;;;12.75;8.15;;;;;;;;;;6246813;28;20144;-75
2023/01/07 05:08:24;;;;;;;17.10;9.15;;;;;;;;;;6245761;28;20329;-75
2023/01/07 05:11:26;;;;;;;15.27;9.45;;;;;;;;;;6247616;28;20054;-75
2023/01/07 05:14:28;;;;;;;13.27;8.63;;;;;;;;;;6247354;28;20056;-75
2023/01/07 05:17:29;;;;;;;16.23;9.63;;;;;;;;;;6245245;28;20046;-73
2023/01/07 05:20:32;;;;;;;18.23;10.38;;;;;;;;;;6240653;28;20049;-75
2023/01/07 05:23:34;;;;;;;15.30;9.55;;;;;;;;;;6247438;28;20049;-75
2023/01/07 05:26:36;;;;;;;17.92;8.93;;;;;;;;;;6247769;28;20347;-75
2023/01/07 05:29:37;;;;;;;14.77;9.20;;;;;;;;;;6248522;28;20056;-76
2023/01/07 05:32:39;;;;;;;13.98;9.88;;;;;;;;;;6246759;28;20057;-75
2023/01/07 05:35:42;;;;;;;16.58;9.45;;;;;;;;;;6247077;28;20288;-75
2023/01/07 05:38:44;;;;;;;17.10;9.23;;;;;;;;;;6245063;28;20383;-74
2023/01/07 05:41:45;;;;;;;15.32;8.90;;;;;;;;;;6244859;28;20068;-75
2023/01/07 05:44:47;;;;;;;18.08;9.52;;;;;;;;;;6245296;28;20275;-75
2023/01/07 05:47:49;;;;;;;15.02;9.20;;;;;;;;;;6249403;28;20054;-76
2023/01/07 05:50:51;;;;;;;15.10;9.45;;;;;;;;;;6248312;28;20053;-75
2023/01/07 05:53:54;;;;;;;16.50;9.00;;;;;;;;;;6244778;28;20269;-75
2023/01/07 05:56:55;;;;;;;15.30;9.05;;;;;;;;;;6248506;28;20053;-71
2023/01/07 05:59:57;;;;;;;16.20;9.57;;;;;;;;;;6247591;28;20060;-76
2023/01/07 06:02:59;;;;;;;14.88;9.13;;;;;;;;;;6246274;28;20092;-74
2023/01/07 06:06:05;;;;;;;14.90;8.93;;;;;;;;;;6248797;28;20045;-73
2023/01/07 06:09:07;;;;;;;17.75;9.75;;;;;;;;;;6247849;28;20064;-72
2023/01/07 06:12:09;;;;;;;16.30;9.50;;;;;;;;;;6247638;28;20068;-73
2023/01/07 06:15:11;;;;;;;18.13;10.05;;;;;;;;;;6248391;28;20400;-75
2023/01/07 06:18:13;;;;;;;16.63;10.10;;;;;;;;;;6247349;28;20562;-75
2023/01/07 06:21:17;;;;;;;17.17;9.43;;;;;;;;;;6247728;28;20100;-74
2023/01/07 06:24:18;;;;;;;17.23;8.90;;;;;;;;;;6247840;28;20057;-76
2023/01/07 06:27:20;;;;;;;17.70;11.48;;;;;;;;;;6251516;28;20100;-75
2023/01/07 06:30:22;;;;;;;17.73;9.93;;;;;;;;;;6248438;28;20053;-76
2023/01/07 06:33:23;;;;;;;16.40;9.88;;;;;;;;;;6249159;28;20095;-76
2023/01/07 06:36:26;;;;;;;13.75;8.63;;;;;;;;;;6246269;28;20098;-75
2023/01/07 06:39:28;;;;;;;16.40;9.70;;;;;;;;;;6245959;28;20371;-76
2023/01/07 06:42:29;;;;;;;17.65;9.85;;;;;;;;;;6246163;28;20285;-76
2023/01/07 06:45:31;;;;;;;18.30;10.20;;;;;;;;;;6245519;28;20053;-76
2023/01/07 06:48:33;;;;;;;20.60;9.95;;;;;;;;;;6247320;28;20052;-76
2023/01/07 06:51:36;;;;;;;16.27;9.65;;;;;;;;;;6248080;28;20061;-76
2023/01/07 06:54:38;;;;;;;17.88;10.38;;;;;;;;;;6251703;28;20061;-76
2023/01/07 06:57:39;;;;;;;16.40;9.88;;;;;;;;;;6247889;28;20037;-76
2023/01/07 07:00:41;;;;;;;16.73;10.60;;;;;;;;;;6252959;28;20103;-76
2023/01/07 07:03:42;;;;;;;16.80;10.35;;;;;;;;;;6249553;28;20334;-77
2023/01/07 07:06:45;;;;;;;15.70;9.80;;;;;;;;;;6249991;28;20056;-75
2023/01/07 07:09:49;;;;;;;18.17;9.93;;;;;;;;;;6247812;28;20087;-75
2023/01/07 07:12:51;;;;;;;16.10;8.95;;;;;;;;;;6250185;28;20241;-76
2023/01/07 07:15:52;;;;;;;19.35;11.05;;;;;;;;;;6249909;28;20107;-75
2023/01/07 07:18:54;;;;;;;15.80;10.02;;;;;;;;;;6248430;28;20305;-75
2023/01/07 07:21:57;;;;;;;20.75;11.60;;;;;;;;;;6251907;28;20054;-72
2023/01/07 07:24:59;;;;;;;19.88;11.35;;;;;;;;;;6249560;28;20053;-75
2023/01/07 07:28:00;;;;;;;20.55;11.45;;;;;;;;;;6248584;28;20053;-76
2023/01/07 07:31:03;;;;;;;17.98;10.80;;;;;;;;;;6250382;28;20054;-77
2023/01/07 07:34:04;;;;;;;19.08;10.18;;;;;;;;;;6249450;28;20056;-77
2023/01/07 07:37:07;;;;;;;19.63;11.30;;;;;;;;;;6247885;28;20049;-75
2023/01/07 07:40:10;;;;;;;18.50;11.05;;;;;;;;;;6247482;28;20561;-76
2023/01/07 07:43:12;;;;;;;17.30;10.07;;;;;;;;;;6246316;28;20112;-72
2023/01/07 07:46:14;;;;;;;20.58;10.25;;;;;;;;;;6247869;28;20077;-77
2023/01/07 07:49:15;;;;;;;20.83;11.93;;;;;;;;;;6250237;28;20234;-76
2023/01/07 07:52:19;;;;;;;17.27;10.10;;;;;;;;;;6248928;28;20057;-76
2023/01/07 07:55:20;;;;;;;18.40;10.10;;;;;;;;;;6249784;28;20079;-76
2023/01/07 07:58:22;;;;;;;18.40;10.77;;;;;;;;;;6249467;28;21702;-76
2023/01/07 08:01:24;;;;;;;18.95;10.85;;;;;;;;;;6250663;28;20284;-76
2023/01/07 08:04:27;;;;;;;19.95;11.32;;;;;;;;;;6249602;28;20577;-76
2023/01/07 08:07:30;;;;;;;19.77;11.02;;;;;;;;;;6251609;28;20054;-79
2023/01/07 08:10:32;;;;;;;19.77;11.38;;;;;;;;;;6248046;28;20053;-76
2023/01/07 08:13:34;;;;;;;22.38;11.18;;;;;;;;;;6250699;28;20091;-74
2023/01/07 08:16:35;;;;;;;19.88;11.50;;;;;;;;;;6248549;28;20095;-79
2023/01/07 08:19:37;;;;;;;18.17;11.60;;;;;;;;;;6249462;28;20049;-77
2023/01/07 08:22:40;;;;;;;19.73;11.10;;;;;;;;;;6247412;28;20049;-77
2023/01/07 08:25:42;;;;;;;20.55;12.00;;;;;;;;;;6245487;28;20077;-77
2023/01/07 08:28:43;;;;;;;19.63;10.95;;;;;;;;;;6246786;28;20053;-74
2023/01/07 08:31:45;;;;;;;19.63;11.23;;;;;;;;;;6246286;28;20057;-76
2023/01/07 08:34:47;;;;;;;20.77;10.65;;;;;;;;;;6250444;28;20285;-76
2023/01/07 08:37:50;;;;;;;20.63;11.70;;;;;;;;;;6247136;28;20049;-77
2023/01/07 08:40:52;;;;;;;20.48;11.93;;;;;;;;;;6248893;28;20186;-76
2023/01/07 08:43:53;;;;;;;20.65;11.93;;;;;;;;;;6249788;28;20225;-76
2023/01/07 08:46:55;;;;;;;20.73;11.27;;;;;;;;;;6245432;28;20056;-76
2023/01/07 08:49:57;;;;;;;23.90;11.63;;;;;;;;;;6247716;28;20107;-77
2023/01/07 08:53:00;;;;;;;20.30;10.98;;;;;;;;;;6246318;28;20091;-76
2023/01/07 08:56:02;;;;;;;20.35;11.13;;;;;;;;;;6248027;28;20072;-77
2023/01/07 08:59:03;;;;;;;20.15;12.25;;;;;;;;;;6247728;28;20053;-77
2023/01/07 09:02:05;;;;;;;18.75;11.55;;;;;;;;;;6248958;28;20072;-75
2023/01/07 09:05:08;;;;;;;22.08;12.63;;;;;;;;;;6245058;28;20053;-76
2023/01/07 09:08:11;;;;;;;20.35;12.40;;;;;;;;;;6245244;28;20133;-76
2023/01/07 09:11:13;;;;;;;20.20;11.85;;;;;;;;;;6245231;28;20058;-77
2023/01/07 09:14:14;;;;;;;16.88;11.13;;;;;;;;;;6245817;28;20049;-77
2023/01/07 09:17:16;;;;;;;22.17;12.85;;;;;;;;;;6245609;28;20053;-76
2023/01/07 09:20:18;;;;;;;23.00;12.43;;;;;;;;;;6247460;28;20045;-77
2023/01/07 09:23:21;;;;;;;21.67;11.98;;;;;;;;;;6245174;28;20325;-72
2023/01/07 09:26:22;;;;;;;20.95;12.40;;;;;;;;;;6246525;28;20099;-77
2023/01/07 09:29:24;;;;;;;23.98;12.70;;;;;;;;;;6245301;28;20037;-77
2023/01/07 09:32:26;;;;;;;22.00;11.38;;;;;;;;;;6246458;28;20580;-76
2023/01/07 09:35:28;;;;;;;23.92;12.95;;;;;;;;;;6248112;28;20041;-77
2023/01/07 09:38:31;;;;;;;25.63;13.60;;;;;;;;;;6246061;28;20053;-77
2023/01/07 09:41:44;;;;;;;26.47;13.50;;;;;;;;;;6246941;28;20325;-77
2023/01/07 09:44:54;;;;;;;22.67;12.95;;;;;;;;;;6245405;28;20061;-74
2023/01/07 09:47:58;;;;;;;23.60;13.60;;;;;;;;;;6247432;28;20142;-76
2023/01/07 09:51:02;;;;;;;26.87;12.33;;;;;;;;;;6245339;28;20053;-76
2023/01/07 09:54:15;;;;;;;26.75;12.98;;;;;;;;;;6245914;28;20297;-77
2023/01/07 09:57:17;;;;;;;22.65;13.00;;;;;;;;;;6245586;28;20205;-77
2023/01/07 10:00:21;;;;;;;24.88;12.52;;;;;;;;;;6247029;28;20053;-77
2023/01/07 10:03:31;;;;;;;30.17;13.30;;;;;;;;;;6246228;28;20049;-73
2023/01/07 10:06:38;;;;;;;26.30;12.50;;;;;;;;;;6247234;28;20088;-74
2023/01/07 10:09:51;;;;;;;28.67;13.38;;;;;;;;;;6246134;28;20103;-77
2023/01/07 10:12:55;;;;;;;27.60;13.52;;;;;;;;;;6243607;28;20072;-77
2023/01/07 10:16:01;;;;;;;26.85;14.05;;;;;;;;;;6245714;28;20068;-77
2023/01/07 10:19:08;;;;;;;25.92;13.40;;;;;;;;;;6243143;28;20057;-76
2023/01/07 10:22:17;;;;;;;26.77;12.90;;;;;;;;;;6243451;28;20415;-75
2023/01/07 10:25:22;;;;;;;29.02;13.13;;;;;;;;;;6245335;28;20045;-75
2023/01/07 10:28:30;;;;;;;26.33;13.13;;;;;;;;;;6246650;28;20053;-77
2023/01/07 10:31:32;;;;;;;28.13;14.02;;;;;;;;;;6246488;28;20057;-77
2023/01/07 10:34:36;;;;;;;26.25;13.20;;;;;;;;;;6247387;28;20057;-75
2023/01/07 10:37:39;;;;;;;27.40;13.27;;;;;;;;;;6247784;28;20107;-79
2023/01/07 10:40:44;;;;;;;30.30;13.32;;;;;;;;;;6247994;28;20053;-75
2023/01/07 10:43:58;;;;;;;31.23;13.65;;;;;;;;;;6244371;28;20057;-77
2023/01/07 10:47:09;;;;;;;23.80;12.93;;;;;;;;;;6248072;28;20049;-77
2023/01/07 10:50:37;;;;;;;28.08;14.23;;;;;;;;;;6248742;28;20115;-79
2023/01/07 10:53:50;;;;;;;30.23;13.43;;;;;;;;;;6245472;28;20045;-77
2023/01/07 10:56:57;;;;;;;25.40;13.60;;;;;;;;;;6247853;28;20046;-77
2023/01/07 11:00:03;;;;;;;27.30;14.38;;;;;;;;;;6247687;28;20056;-76
2023/01/07 11:03:05;;;;;;;28.77;13.98;;;;;;;;;;6246748;28;20045;-76
2023/01/07 11:06:10;;;;;;;29.08;14.02;;;;;;;;;;6245297;28;20451;-77
2023/01/07 11:09:15;;;;;;;28.60;14.18;;;;;;;;;;6243810;28;20057;-77
2023/01/07 11:12:25;;;;;;;27.58;13.38;;;;;;;;;;6246146;28;20065;-76
2023/01/07 11:15:30;;;;;;;27.48;13.63;;;;;;;;;;6243736;28;20045;-73
2023/01/07 11:18:34;;;;;;;27.67;14.27;;;;;;;;;;6242890;28;20049;-76
2023/01/07 11:21:36;;;;;;;;;;;;;;;;;;6246985;28;20103;-77
2023/01/07 11:24:38;;;;;;;28.40;14.02;;;;;;;;;;6243398;28;20007;-79
2023/01/07 11:27:45;;;;;;;28.05;14.13;;;;;;;;;;6243040;28;20348;-75
2023/01/07 11:30:56;;;;;;;27.85;13.77;;;;;;;;;;6242814;28;20104;-79
2023/01/07 11:33:58;;;;;;;27.85;15.02;;;;;;;;;;6245083;28;20057;-77
2023/01/07 11:37:00;;;;;;;27.58;13.98;;;;;;;;;;6243715;28;20087;-74
2023/01/07 11:40:07;;;;;;;30.63;15.15;;;;;;;;;;6246117;28;20305;-72
2023/01/07 11:43:22;;;;;;;33.70;15.18;;;;;;;;;;6250080;28;20076;-73
2023/01/07 11:46:24;;;;;;;31.48;14.65;;;;;;;;;;6249519;28;20058;-74
2023/01/07 11:49:27;;;;;;;28.60;15.55;;;;;;;;;;6250225;28;20045;-76
2023/01/07 11:52:29;;;;;;;32.42;16.20;;;;;;;;;;6248102;28;20239;-77
2023/01/07 11:55:31;;;;;;;32.58;15.15;;;;;;;;;;6248716;28;20054;-79
2023/01/07 11:58:37;;;;;;;32.58;16.58;;;;;;;;;;6250352;28;20054;-79
2023/01/07 12:01:43;;;;;;;27.33;14.95;;;;;;;;;;6251004;28;20061;-78
2023/01/07 12:04:45;;;;;;;29.42;15.38;;;;;;;;;;6248605;28;20053;-79
2023/01/07 12:07:48;;;;;;;32.30;17.17;;;;;;;;;;6247705;28;20068;-73
2023/01/07 12:10:54;;;;;;;31.08;16.23;;;;;;;;;;6250710;28;20098;-77
2023/01/07 12:14:02;;;;;;;31.13;16.42;;;;;;;;;;6248013;28;20057;-75
2023/01/07 12:17:10;;;;;;;34.13;15.85;;;;;;;;;;6248957;28;20049;-73
2023/01/07 12:20:31;;;;;;;33.03;15.18;;;;;;;;;;6246860;28;20118;-76
2023/01/07 12:23:37;;;;;;;35.72;15.57;;;;;;;;;;6248027;28;20049;-77
2023/01/07 12:26:46;;;;;;;30.75;15.90;;;;;;;;;;6249831;28;20053;-75
2023/01/07 12:29:58;;;;;;;29.67;14.70;;;;;;;;;;6253225;28;20061;-77
2023/01/07 12:33:08;;;;;;;31.13;16.05;;;;;;;;;;6248412;28;20075;-77
2023/01/07 12:36:16;;;;;;;30.17;15.45;;;;;;;;;;6246399;28;20049;-74
2023/01/07 12:39:23;;;;;;;32.78;14.85;;;;;;;;;;6247361;28;20063;-77
2023/01/07 12:42:27;;;;;;;33.25;16.25;;;;;;;;;;6246863;28;20253;-77
2023/01/07 12:45:31;;;;;;;;;;;;;;;;;;6248790;28;20048;-77
2023/01/07 12:48:38;;;;;;;28.17;14.98;;;;;;;;;;6247209;28;19931;-77
2023/01/07 12:51:43;;;;;;;34.20;15.15;;;;;;;;;;6245797;28;20046;-76
2023/01/07 12:54:50;;;;;;;31.50;15.05;;;;;;;;;;6247514;28;20064;-76
2023/01/07 12:57:59;;;;;;;31.48;15.38;;;;;;;;;;6245022;28;20113;-76
2023/01/07 13:01:07;;;;;;;31.02;14.50;;;;;;;;;;6245652;28;20061;-77
2023/01/07 13:04:16;;;;;;;27.92;14.02;;;;;;;;;;6248881;28;20052;-77
2023/01/07 13:07:21;;;;;;;26.95;15.35;;;;;;;;;;6247329;28;20041;-72
2023/01/07 13:10:25;;;;;;;32.85;16.05;;;;;;;;;;6250651;28;20057;-77
2023/01/07 13:13:31;;;;;;;31.55;15.15;;;;;;;;;;6247314;28;20484;-78
2023/01/07 13:16:34;;;;;;;29.00;15.50;;;;;;;;;;6244695;28;20238;-77
2023/01/07 13:19:36;;;;;;;31.23;16.33;;;;;;;;;;6247893;28;20061;-77
2023/01/07 13:22:41;;;;;;;29.27;15.88;;;;;;;;;;6247560;28;20045;-75
2023/01/07 13:26:05;;;;;;;28.30;15.60;;;;;;;;;;6246343;28;20057;-77
2023/01/07 13:29:24;;;;;;;30.52;15.07;;;;;;;;;;6243510;28;20308;-77
2023/01/07 13:32:37;;;;;;;29.98;15.05;;;;;;;;;;6245670;28;20118;-78
2023/01/07 13:35:46;;;;;;;30.30;15.15;;;;;;;;;;6250001;28;20069;-77
2023/01/07 13:39:03;;;;;;;30.98;14.65;;;;;;;;;;6246634;28;20068;-78
2023/01/07 13:42:30;;;;;;;25.92;14.27;;;;;;;;;;6246598;28;20294;-75
2023/01/07 13:45:33;;;;;;;29.88;14.20;;;;;;;;;;6243229;28;20050;-77
2023/01/07 13:48:37;;;;;;;31.45;16.38;;;;;;;;;;6245983;28;20057;-77
2023/01/07 13:51:39;;;;;;;30.90;16.58;;;;;;;;;;6247259;28;20132;-75
2023/01/07 13:54:55;;;;;;;31.33;16.60;;;;;;;;;;6246041;28;20403;-75
2023/01/07 13:57:56;;;;;;;32.63;15.60;;;;;;;;;;6244172;28;20050;-77
2023/01/07 14:01:03;;;;;;;32.97;16.17;;;;;;;;;;6247787;28;20056;-76
2023/01/07 14:04:43;;;;;;;31.80;16.13;;;;;;;;;;6248704;28;20452;-73
2023/01/07 14:07:45;;;;;;;30.80;16.17;;;;;;;;;;6246614;28;20041;-75
2023/01/07 14:10:52;;;;;;;31.00;16.25;;;;;;;;;;6247258;28;20057;-77
2023/01/07 14:13:58;;;;;;;30.58;15.57;;;;;;;;;;6242753;28;20099;-73
2023/01/07 14:17:07;;;;;;;32.05;15.88;;;;;;;;;;6245081;28;20083;-71
2023/01/07 14:20:17;;;;;;;33.30;17.73;;;;;;;;;;6248642;28;20060;-75
2023/01/07 14:23:26;;;;;;;30.98;17.25;;;;;;;;;;6250765;28;20092;-73
2023/01/07 14:26:32;;;;;;;34.80;16.95;;;;;;;;;;6245752;28;20053;-80
2023/01/07 14:29:41;;;;;;;32.55;17.90;;;;;;;;;;6245070;28;20119;-79
2023/01/07 14:32:44;;;;;;;32.10;16.83;;;;;;;;;;6244781;28;20046;-76
2023/01/07 14:35:53;;;;;;;31.67;17.13;;;;;;;;;;6250993;28;20060;-79
2023/01/07 14:38:57;;;;;;;35.95;16.83;;;;;;;;;;6246179;28;20057;-79
2023/01/07 14:42:18;;;;;;;;;;;;;;;;;;6245951;28;20120;-79
2023/01/07 14:45:54;;;;;;;31.85;16.35;;;;;;;;;;6246779;28;19933;-70
2023/01/07 14:49:12;;;;;;;33.25;17.30;;;;;;;;;;6249181;28;20054;-81
2023/01/07 14:52:42;;;;;;;35.25;18.13;;;;;;;;;;6244165;28;20057;-80
2023/01/07 14:56:00;;;;;;;33.03;18.58;;;;;;;;;;6244299;28;20091;-77
2023/01/07 14:59:14;;;;;;;36.58;18.45;;;;;;;;;;6244857;28;20065;-74
2023/01/07 15:02:37;;;;;;;38.05;18.88;;;;;;;;;;6247452;28;20092;-80
2023/01/07 15:06:14;;;;;;;34.83;18.90;;;;;;;;;;6249234;28;20680;-76
2023/01/07 15:16:04;;;;;;;40.55;19.58;;;;;;;;;;6249999;28;20057;-79
2023/01/07 15:19:08;;;;;;;40.28;19.67;;;;;;;;;;6247208;28;20157;-75
2023/01/07 15:22:20;;;;;;;40.72;20.10;;;;;;;;;;6246807;28;20050;-76
2023/01/07 15:25:35;;;;;;;39.35;20.05;;;;;;;;;;6249760;28;20323;-81
2023/01/07 15:28:43;;;;;;;40.97;19.98;;;;;;;;;;6250893;28;20139;-80
2023/01/07 15:31:49;;;;;;;40.25;19.58;;;;;;;;;;6246951;28;20144;-79
2023/01/07 15:34:51;;;;;;;43.05;20.20;;;;;;;;;;6249084;28;20275;-81
2023/01/07 15:37:52;;;;;;;42.97;21.17;;;;;;;;;;6248687;28;20058;-80
2023/01/07 15:40:57;;;;;;;43.38;20.85;;;;;;;;;;6246422;28;20100;-78
2023/01/07 15:44:02;;;;;;;39.72;20.70;;;;;;;;;;6247342;28;20127;-80
2023/01/07 15:47:06;;;;;;;44.47;20.85;;;;;;;;;;6248144;28;20565;-79
2023/01/07 15:50:22;;;;;;;37.63;20.08;;;;;;;;;;6248973;28;20058;-77
2023/01/07 15:53:26;;;;;;;43.67;23.52;;;;;;;;;;6248540;28;20058;-80
2023/01/07 15:56:29;;;;;;;45.08;22.98;;;;;;;;;;6250976;28;20352;-78
2023/01/07 15:59:33;;;;;;;43.75;21.27;;;;;;;;;;6249281;28;20275;-80
2023/01/07 16:02:37;;;;;;;44.67;23.10;;;;;;;;;;6246285;28;20057;-78
2023/01/07 16:05:39;;;;;;;43.08;22.13;;;;;;;;;;6247778;28;20326;-77
2023/01/07 16:08:44;;;;;;;41.83;22.95;;;;;;;;;;6246569;28;20104;-77
2023/01/07 16:11:47;;;;;;;49.10;22.83;;;;;;;;;;6248145;28;20103;-77
2023/01/07 16:14:49;;;;;;;52.85;28.58;;;;;;;;;;6247003;28;20076;-81
2023/01/07 16:17:51;;;;;;;55.90;26.63;;;;;;;;;;6250366;28;20057;-76
2023/01/07 16:20:55;;;;;;;74.00;35.38;;;;;;;;;;6248719;28;20054;-80
2023/01/07 16:23:56;;;;;;;;;;;;;;;;;;6250470;28;20325;-77
2023/01/07 16:27:02;;;;;;;91.88;44.53;;;;;;;;;;6251133;28;19929;-79
2023/01/07 16:30:04;;;;;;;60.13;31.25;;;;;;;;;;6250519;28;20285;-78
2023/01/07 16:33:06;;;;;;;50.30;24.80;;;;;;;;;;6248638;28;20042;-77
2023/01/07 16:36:12;;;;;;;58.90;27.27;;;;;;;;;;6246181;28;20280;-78
2023/01/07 16:39:19;;;;;;;52.30;24.05;;;;;;;;;;6247370;28;20300;-73
2023/01/07 16:42:23;;;;;;;44.80;22.70;;;;;;;;;;6247727;28;20125;-79
2023/01/07 16:45:27;;;;;;;43.92;22.27;;;;;;;;;;6248823;28;20103;-75
2023/01/07 16:48:29;;;;;;;42.35;22.58;;;;;;;;;;6249092;28;20053;-79
2023/01/07 16:51:35;;;;;;;46.50;22.88;;;;;;;;;;6246611;28;20103;-78
2023/01/07 16:54:38;;;;;;;44.13;21.23;;;;;;;;;;6245556;28;20109;-78
2023/01/07 16:57:43;;;;;;;42.77;22.20;;;;;;;;;;6248017;28;20108;-78
2023/01/07 17:00:49;;;;;;;44.90;21.83;;;;;;;;;;6245810;28;20452;-78
2023/01/07 17:03:53;;;;;;;43.95;21.67;;;;;;;;;;6247350;28;20065;-78
2023/01/07 17:06:56;;;;;;;48.28;23.02;;;;;;;;;;6245362;28;20376;-77
2023/01/07 17:09:59;;;;;;;46.15;23.50;;;;;;;;;;6248181;28;20103;-78
2023/01/07 17:13:03;;;;;;;45.00;22.08;;;;;;;;;;6246355;28;20152;-75
2023/01/07 17:16:30;;;;;;;47.53;22.90;;;;;;;;;;6248942;28;20049;-75
2023/01/07 17:19:36;;;;;;;49.17;23.10;;;;;;;;;;6232461;28;20092;-76
2023/01/07 17:22:39;;;;;;;46.30;23.95;;;;;;;;;;6245726;28;20053;-73
2023/01/07 17:25:40;;;;;;;47.58;23.08;;;;;;;;;;6244845;28;20116;-73
2023/01/07 17:28:47;;;;;;;51.00;23.38;;;;;;;;;;6245340;28;20041;-74
2023/01/07 17:31:48;;;;;;;45.60;22.25;;;;;;;;;;6244792;28;20224;-76
2023/01/07 17:34:50;;;;;;;52.28;23.75;;;;;;;;;;6246772;28;20045;-76
2023/01/07 17:37:53;;;;;;;50.20;22.90;;;;;;;;;;6248912;28;20053;-75
2023/01/07 17:40:55;;;;;;;46.55;23.40;;;;;;;;;;6247571;28;20061;-74
2023/01/07 17:43:57;;;;;;;51.33;23.27;;;;;;;;;;6245661;28;20053;-73
2023/01/07 17:46:59;;;;;;;52.28;22.30;;;;;;;;;;6245516;28;20041;-76
2023/01/07 17:50:01;;;;;;;46.53;22.15;;;;;;;;;;6248593;28;20057;-75
2023/01/07 17:53:03;;;;;;;46.78;22.73;;;;;;;;;;6247045;28;20328;-77
2023/01/07 17:56:05;;;;;;;48.95;23.42;;;;;;;;;;6246255;28;20103;-77
2023/01/07 17:59:13;;;;;;;50.00;22.42;;;;;;;;;;6246714;28;20045;-76
2023/01/07 18:02:17;;;;;;;47.17;22.33;;;;;;;;;;6245615;28;20061;-75
2023/01/07 18:05:20;;;;;;;47.83;22.80;;;;;;;;;;6246519;28;20123;-75
2023/01/07 18:08:23;;;;;;;48.85;22.65;;;;;;;;;;6246768;28;20336;-76
2023/01/07 18:14:56;;;;;;;51.42;22.75;;;;;;;;;;6216618;28;20246;-76